Main page
METAR-TAF:

METAR-TAF

Airports :

Central Park

New York, New York, United States

latitude: 40-47-00N, longitude: 073-58-00W, elevation: 154 ft

Current weather observation

The report was made 46 minutes ago, at 16:51 UTC
Wind 17 mph from the West with gusts up to 31 mph, varying between West and Northwest
Temperature 39°F
Humidity 48%
Pressure 29.56 in. Hg
Visibility: 10 miles
Broken clouds at a height of 5000 ft

METAR: KNYC 271651Z AUTO 28015G27KT 260V320 10SM BKN050 04/M06 A2956 RMK AO2 PK WND 29035/1639 SLP001 T00441061 $

Time: 12:37 (17:37 UTC)


TAF: missing

Weather observations and forecasts of more than 4000 airports (METAR and TAF reports).

The available stations are represented by yellow and red dots on the map.

Hover mouse over dot to see the name of the station.

Then click to see weather observations and forecasts.

To change the map : click on the green buttons with a black cross to zoom in, on the green button with a dash to zoom out, or on the green arrows for adjacent maps.


METAR-TAF: